Ambulong, Philippines

4:37 AM PHT on May 30, 2015 (GMT +0800)
Ninoy Aquino International | | Change Station
CLOSE
Current Station
Airport
Location: Manila,
Elevation: 49 ft
Nearby Weather Stations

Elev 49 ft 14.51 °N, 121.00 °E | Updated 37 minutes ago

Scattered Clouds
Scattered Clouds
82 °F
Feels Like 91 °F
N
5
Wind Variable Wind from WNW

Today
High -- | Low -- °F
--% Chance of Precip.
Yesterday
High -- | Low -- °F
Precip. -- in
5:26 AM 6:19 PM
Waxing Gibbous, 85% visible
Pressure 29.83 in
Visibility 6.2 miles
Clouds Few 2500 ft
Scattered Clouds 30000 ft
Heat Index 91 °F
Dew Point 77 °F
Humidity 84%
Rainfall 0.00 in
Snow Depth Not available.
UV 0 out of 12
Pollen Not available.
Air Quality Not available.
Flu Activity Not available.
METAR RPLL 292000Z 30004KT 270V330 9999 FEW025 SCT300 28/25 Q1010 NOSIG RMK A2983

More Conditions Fewer Conditions

Pressure 29.83 in
Visibility 6.2 miles
Clouds Few 2500 ft
Scattered Clouds 30000 ft
Heat Index 91 °F
Dew Point 77 °F
Humidity 84%
Rainfall 0.00 in
Snow Depth Not available.
UV 0 out of 12
Pollen Not available.
Air Quality Not available.
Flu Activity Not available.
METAR RPLL 292000Z 30004KT 270V330 9999 FEW025 SCT300 28/25 Q1010 NOSIG RMK A2983

More Conditions Fewer Conditions

10-Day Weather Forecast

Almanac

Astronomy

May. 30, 2015 Rise Set
Actual Time
Civil Twilight
Nautical Twilight
Astronomical Twilight
Moon
Length of Visible Light
Length of Day
Tomorrow will be .
, % of the Moon is Illuminated

Today's Extremes

Country Highs Country Lows

Community

WunderPhotos

Upload Photos

1,825,347 photos uploaded!

WunderBlogs® & News

Nearby

Air Quality

  Air Quality AQ Index Pollutant
Not available.

Snow Depth

Station Depth Elevation

Earthquake Activity

City Distance Mag. Time & Date
Minimum magnitude displayed is 2.5.

Coastal Water Temperatures

Place Temperature

Stations

Nearby Weather Stations

Station Location Temp. Windchill Dew Point Humidity Wind Precip. Elev Updated Type